Mc Louth, Kansas
Current Conditions -  °F | °C
As of 12:52 AM on Thursday 23 Oct 2014 (Local Time) from KLWC Reporting Station
Broken Clouds Broken Clouds  
Wind Chill: 61°   Ceiling: 12000
Heat Index: 61°   Visibility: 10mi
Dew Point: 54°   Wind: 8mph
Humidity: 78%   Direction: 160°SSE
Pressure: 30.09"   Gusts: NA
Location:  39.1639°N, 95.2236°W
Report Text: KLWC 230552Z AUTO 16007KT 10SM SCT050 SCT070 BKN120 16/12 A3009 RMK AO2 SLP183 T01610122 10194 20161 402390100 58004
Loading
Personal Weather Stations






























Interactive Weather Map
Tropical Storm Tracking
New forecast layout! Learn more

10-Day Weather Forecast

Advertisements
Track Severe Weather on mobile